Time;durP1;ratioP1;P1;durP2;ratioP2;P2;SDS_P1;SDS_P2;PMS_P1;PMS_P2;Temp;Humidity;BMP_temperature;BMP_pressure;BME280_temperature;BME280_humidity;BME280_pressure;Samples;Min_cycle;Max_cycle;Signal;HPM_P1;HPM_P2
2024/03/24 00:01:57;;;;;;;6.17;3.40;;;7.00;99.90;;;;;;5073066;28;20445;-58
2024/03/24 00:04:24;;;;;;;4.47;3.27;;;7.00;99.90;;;;;;5072863;28;20484;-57
2024/03/24 00:06:50;;;;;;;8.90;3.40;;;7.00;99.90;;;;;;5073481;28;20445;-58
2024/03/24 00:09:17;;;;;;;5.17;3.60;;;7.00;99.90;;;;;;5076428;28;20989;-58
2024/03/24 00:11:43;;;;;;;7.93;3.80;;;7.00;99.90;;;;;;5076868;28;20480;-57
2024/03/24 00:14:10;;;;;;;5.63;3.63;;;7.00;99.90;;;;;;5076711;28;20479;-58
2024/03/24 00:16:36;;;;;;;7.37;4.73;;;7.00;99.90;;;;;;5076671;28;20198;-58
2024/03/24 00:19:04;;;;;;;8.07;4.57;;;7.00;99.90;;;;;;5076256;28;20465;-58
2024/03/24 00:21:31;;;;;;;6.60;3.73;;;7.00;99.90;;;;;;5076639;28;20228;-58
2024/03/24 00:23:58;;;;;;;5.00;4.50;;;7.00;99.90;;;;;;5076594;28;20444;-58
2024/03/24 00:26:25;;;;;;;4.70;4.30;;;7.00;99.90;;;;;;5076584;28;20467;-58
2024/03/24 00:28:52;;;;;;;7.60;4.80;;;7.00;99.90;;;;;;5076214;28;20472;-59
2024/03/24 00:31:18;;;;;;;8.40;5.37;;;7.00;99.90;;;;;;5076501;28;20814;-58
2024/03/24 00:33:45;;;;;;;10.03;5.00;;;7.00;99.90;;;;;;5076415;28;20516;-58
2024/03/24 00:36:12;;;;;;;5.50;4.30;;;7.00;99.90;;;;;;5076496;28;20203;-58
2024/03/24 00:38:39;;;;;;;6.77;4.60;;;7.00;99.90;;;;;;5076343;28;20465;-58
2024/03/24 00:41:06;;;;;;;4.47;4.07;;;7.00;99.90;;;;;;5076746;28;20527;-58
2024/03/24 00:43:33;;;;;;;6.97;4.90;;;6.90;99.90;;;;;;5076189;28;20444;-58
2024/03/24 00:45:59;;;;;;;4.23;3.93;;;6.90;99.90;;;;;;5076269;28;20449;-58
2024/03/24 00:48:26;;;;;;;5.30;4.10;;;6.90;99.90;;;;;;5076206;28;20425;-58
2024/03/24 00:50:51;;;;;;;8.27;4.87;;;6.90;99.90;;;;;;5075936;28;20309;-58
2024/03/24 00:53:19;;;;;;;5.17;4.63;;;6.90;99.90;;;;;;5075678;28;20536;-58
2024/03/24 00:55:45;;;;;;;6.33;3.83;;;6.80;99.90;;;;;;5075544;28;20203;-59
2024/03/24 00:58:12;;;;;;;4.37;3.70;;;6.80;99.90;;;;;;5075888;28;20816;-58
2024/03/24 01:00:38;;;;;;;7.57;3.80;;;6.80;99.90;;;;;;5075945;28;20593;-58
2024/03/24 01:03:05;;;;;;;11.73;3.90;;;6.80;99.90;;;;;;5076061;28;20790;-58
2024/03/24 01:05:31;;;;;;;4.17;3.60;;;6.80;99.90;;;;;;5076040;28;20519;-58
2024/03/24 01:07:58;;;;;;;3.27;2.90;;;6.70;99.90;;;;;;5075933;28;20520;-58
2024/03/24 01:10:25;;;;;;;5.50;2.97;;;6.80;99.90;;;;;;5075598;28;20491;-58
2024/03/24 01:12:52;;;;;;;7.73;2.97;;;6.80;99.90;;;;;;5076156;28;20449;-58
2024/03/24 01:15:18;;;;;;;3.90;3.10;;;6.70;99.90;;;;;;5076316;28;20450;-58
2024/03/24 01:17:46;;;;;;;4.77;3.20;;;6.70;99.90;;;;;;5076430;28;20527;-59
2024/03/24 01:20:13;;;;;;;3.20;2.90;;;6.60;99.90;;;;;;5079448;28;20466;-58
2024/03/24 01:22:40;;;;;;;6.53;3.80;;;6.60;99.90;;;;;;5076658;28;20436;-58
2024/03/24 01:25:07;;;;;;;5.30;2.90;;;6.70;99.90;;;;;;5076308;28;20527;-58
2024/03/24 01:27:36;;;;;;;6.43;4.00;;;6.60;99.90;;;;;;5075770;28;20440;-58
2024/03/24 01:30:02;;;;;;;7.97;3.17;;;6.60;99.90;;;;;;5075537;28;20486;-58
2024/03/24 01:32:28;;;;;;;3.70;3.17;;;6.60;99.90;;;;;;5075804;28;20824;-58
2024/03/24 01:34:54;;;;;;;6.20;4.07;;;6.70;99.90;;;;;;5075429;28;20540;-58
2024/03/24 01:37:21;;;;;;;6.90;4.67;;;6.70;99.90;;;;;;5075280;28;20532;-58
2024/03/24 01:39:48;;;;;;;6.07;3.70;;;6.70;99.90;;;;;;5075228;28;20325;-58
2024/03/24 01:42:15;;;;;;;6.30;4.97;;;6.70;99.90;;;;;;5075253;28;20455;-58
2024/03/24 01:44:43;;;;;;;9.43;4.00;;;6.70;99.90;;;;;;5074679;28;20441;-58
2024/03/24 01:47:10;;;;;;;8.33;4.60;;;6.70;99.90;;;;;;5075130;28;20490;-58
2024/03/24 01:49:36;;;;;;;7.97;4.70;;;6.70;99.90;;;;;;5074600;28;20488;-58
2024/03/24 01:52:06;;;;;;;10.00;4.40;;;6.70;99.90;;;;;;5075002;28;20437;-58
2024/03/24 01:54:33;;;;;;;5.60;4.70;;;6.70;99.90;;;;;;5074919;28;20429;-58
2024/03/24 01:57:00;;;;;;;7.03;4.70;;;6.70;99.90;;;;;;5074516;28;20456;-58
2024/03/24 01:59:26;;;;;;;6.20;4.60;;;6.70;99.90;;;;;;5074683;28;20453;-58
2024/03/24 02:01:54;;;;;;;6.83;4.60;;;6.80;99.90;;;;;;5074490;28;20425;-58
2024/03/24 02:04:20;;;;;;;7.70;5.03;;;6.80;99.90;;;;;;5075091;28;20690;-57
2024/03/24 02:06:47;;;;;;;6.10;4.10;;;6.80;99.90;;;;;;5074661;28;20527;-58
2024/03/24 02:09:13;;;;;;;10.57;4.60;;;6.80;99.90;;;;;;5074508;28;20222;-58
2024/03/24 02:11:40;;;;;;;5.70;4.37;;;6.80;99.90;;;;;;5074592;28;20440;-58
2024/03/24 02:14:06;;;;;;;9.53;4.90;;;6.80;99.90;;;;;;5074192;28;20451;-58
2024/03/24 02:16:34;;;;;;;6.80;4.33;;;6.80;99.90;;;;;;5074901;28;20527;-57
2024/03/24 02:19:02;;;;;;;6.83;4.97;;;6.80;99.90;;;;;;5074312;28;20229;-57
2024/03/24 02:21:29;;;;;;;4.93;3.77;;;6.80;99.90;;;;;;5074463;28;20448;-57
2024/03/24 02:23:57;;;;;;;6.63;4.40;;;6.80;99.90;;;;;;5074381;28;20466;-57
2024/03/24 02:26:23;;;;;;;5.10;4.20;;;6.80;99.90;;;;;;5073842;28;20455;-58
2024/03/24 02:28:49;;;;;;;9.80;4.87;;;6.80;99.90;;;;;;5074078;28;20524;-59
2024/03/24 02:31:17;;;;;;;5.10;4.10;;;6.80;99.90;;;;;;5073727;28;20523;-59
2024/03/24 02:33:43;;;;;;;6.53;3.97;;;6.80;99.90;;;;;;5074143;28;20209;-60
2024/03/24 02:36:10;;;;;;;5.57;4.33;;;6.80;99.90;;;;;;5074226;28;20812;-60
2024/03/24 02:38:35;;;;;;;9.13;4.20;;;6.80;99.90;;;;;;5074057;28;20457;-60
2024/03/24 02:41:04;;;;;;;9.83;4.60;;;6.80;99.90;;;;;;5073711;28;20895;-60
2024/03/24 02:43:32;;;;;;;5.30;3.20;;;6.80;99.90;;;;;;5074012;28;20202;-60
2024/03/24 02:45:59;;;;;;;5.47;4.60;;;6.80;99.90;;;;;;5074197;28;20429;-59
2024/03/24 02:48:26;;;;;;;6.60;3.90;;;6.70;99.90;;;;;;5073636;28;20532;-59
2024/03/24 02:50:53;;;;;;;6.70;4.37;;;6.80;99.90;;;;;;5073839;28;20503;-59
2024/03/24 02:53:19;;;;;;;8.30;4.60;;;6.80;99.90;;;;;;5073921;28;20473;-59
2024/03/24 02:55:46;;;;;;;8.23;3.80;;;6.80;99.90;;;;;;5073957;28;20966;-60
2024/03/24 02:58:14;;;;;;;4.73;3.90;;;6.80;99.90;;;;;;5073418;28;20293;-59
2024/03/24 03:00:41;;;;;;;7.83;4.73;;;6.80;99.90;;;;;;5073514;28;20464;-58
2024/03/24 03:03:07;;;;;;;7.50;4.23;;;6.80;99.90;;;;;;5073682;28;20878;-58
2024/03/24 03:05:34;;;;;;;6.67;3.90;;;6.70;99.90;;;;;;5073267;28;20476;-59
2024/03/24 03:08:02;;;;;;;7.20;4.27;;;6.70;99.90;;;;;;5073292;28;20206;-58
2024/03/24 03:10:30;;;;;;;7.40;3.97;;;6.70;99.90;;;;;;5073206;28;20538;-59
2024/03/24 03:12:56;;;;;;;5.90;3.77;;;6.60;99.90;;;;;;5073401;28;20448;-59
2024/03/24 03:15:25;;;;;;;5.50;3.47;;;6.50;99.90;;;;;;5073467;28;20535;-59
2024/03/24 03:17:51;;;;;;;4.70;3.00;;;6.50;99.90;;;;;;5073459;28;20519;-59
2024/03/24 03:20:18;;;;;;;6.00;3.63;;;6.50;99.90;;;;;;5073374;28;20548;-60
2024/03/24 03:22:44;;;;;;;4.37;3.63;;;6.50;99.90;;;;;;5073510;28;20440;-59
2024/03/24 03:25:11;;;;;;;3.50;3.10;;;6.40;99.90;;;;;;5073352;28;20795;-58
2024/03/24 03:27:37;;;;;;;7.00;3.23;;;6.40;99.90;;;;;;5073169;28;20946;-58
2024/03/24 03:30:04;;;;;;;5.30;3.80;;;6.30;99.90;;;;;;5073020;28;20506;-59
2024/03/24 03:32:32;;;;;;;4.13;3.73;;;6.30;99.90;;;;;;5072993;28;20279;-59
2024/03/24 03:34:59;;;;;;;7.50;4.13;;;6.20;99.90;;;;;;5072911;28;20452;-59
2024/03/24 03:37:25;;;;;;;3.67;3.20;;;6.20;99.90;;;;;;5073183;28;20453;-59
2024/03/24 03:39:51;;;;;;;5.97;4.10;;;6.20;99.90;;;;;;5073150;28;20464;-59
2024/03/24 03:42:18;;;;;;;6.13;4.63;;;6.20;99.90;;;;;;5074406;28;20817;-59
2024/03/24 03:44:46;;;;;;;3.70;3.40;;;6.20;99.90;;;;;;5077241;28;20202;-59
2024/03/24 03:47:14;;;;;;;6.03;4.00;;;6.20;99.90;;;;;;5077104;28;20449;-58
2024/03/24 03:49:42;;;;;;;4.60;3.50;;;6.20;99.90;;;;;;5076993;28;20576;-59
2024/03/24 03:52:09;;;;;;;4.87;4.13;;;6.20;99.90;;;;;;5077271;28;20459;-58
2024/03/24 03:54:37;;;;;;;4.90;3.60;;;6.20;99.90;;;;;;5076771;28;20444;-58
2024/03/24 03:57:04;;;;;;;4.60;3.23;;;6.20;99.90;;;;;;5063160;22;21058;-61
2024/03/24 03:59:30;;;;;;;3.47;3.03;;;6.20;99.90;;;;;;5036889;28;20453;-62
2024/03/24 04:01:57;;;;;;;3.70;2.93;;;6.20;99.90;;;;;;5036926;28;20529;-61
2024/03/24 04:04:23;;;;;;;3.90;3.47;;;6.20;99.90;;;;;;5036895;28;20211;-62
2024/03/24 04:06:51;;;;;;;6.37;3.53;;;6.30;99.90;;;;;;5036692;28;20468;-63
2024/03/24 04:09:18;;;;;;;6.87;3.67;;;6.30;99.90;;;;;;5036337;28;20462;-62
2024/03/24 04:11:45;;;;;;;7.20;4.47;;;6.30;99.90;;;;;;5036504;28;20500;-62
2024/03/24 04:14:11;;;;;;;7.33;4.00;;;6.40;99.90;;;;;;5036716;28;20442;-62
2024/03/24 04:16:40;;;;;;;8.77;4.63;;;6.40;99.90;;;;;;5036358;28;20449;-62
2024/03/24 04:19:07;;;;;;;5.17;3.40;;;6.40;99.90;;;;;;5036316;28;20709;-62
2024/03/24 04:21:34;;;;;;;4.50;4.10;;;6.30;99.90;;;;;;5036596;28;20461;-62
2024/03/24 04:24:01;;;;;;;9.87;4.00;;;6.40;99.90;;;;;;5036525;28;20450;-63
2024/03/24 04:26:28;;;;;;;6.40;4.00;;;6.40;99.90;;;;;;5036448;28;20452;-62
2024/03/24 04:28:54;;;;;;;5.80;4.10;;;6.40;99.90;;;;;;5036333;28;20452;-62
2024/03/24 04:31:20;;;;;;;9.07;4.57;;;6.40;99.90;;;;;;5036228;28;20478;-63
2024/03/24 04:33:46;;;;;;;4.50;3.83;;;6.40;99.90;;;;;;5036339;28;20206;-63
2024/03/24 04:36:13;;;;;;;4.80;3.90;;;6.40;99.90;;;;;;5036313;28;20439;-62
2024/03/24 04:38:40;;;;;;;6.10;3.67;;;6.40;99.90;;;;;;5036300;28;20206;-62
2024/03/24 04:41:09;;;;;;;3.87;3.40;;;6.40;99.90;;;;;;5035875;28;20453;-62
2024/03/24 04:43:36;;;;;;;4.50;4.10;;;6.40;99.90;;;;;;5036736;28;20446;-62
2024/03/24 04:46:02;;;;;;;7.50;4.10;;;6.40;99.90;;;;;;5035787;28;20832;-63
2024/03/24 04:48:29;;;;;;;4.80;3.30;;;6.30;99.90;;;;;;5036001;28;20529;-63
2024/03/24 04:50:55;;;;;;;5.30;3.93;;;6.30;99.90;;;;;;5035843;28;20493;-63
2024/03/24 04:53:24;;;;;;;8.73;3.77;;;6.30;99.90;;;;;;5035504;28;20454;-63
2024/03/24 04:55:51;;;;;;;8.17;3.73;;;6.30;99.90;;;;;;5035820;28;20247;-62
2024/03/24 04:58:18;;;;;;;10.20;3.90;;;6.30;99.90;;;;;;5035954;28;20899;-63
2024/03/24 05:00:45;;;;;;;7.07;3.53;;;6.30;99.90;;;;;;5035476;28;20467;-62
2024/03/24 05:03:11;;;;;;;6.93;3.07;;;6.30;99.90;;;;;;5035473;28;20456;-63
2024/03/24 05:05:45;;;;;;;7.00;4.40;;;6.40;99.90;;;;;;5035731;28;20894;-63
2024/03/24 05:08:12;;;;;;;8.70;4.17;;;6.40;99.90;;;;;;5035413;28;20489;-63
2024/03/24 05:10:39;;;;;;;6.50;4.20;;;6.30;99.90;;;;;;5035507;28;20486;-63
2024/03/24 05:13:05;;;;;;;7.70;5.80;;;6.40;99.90;;;;;;5035640;28;20496;-63
2024/03/24 05:15:34;;;;;;;6.87;4.50;;;6.40;99.90;;;;;;5035349;28;20478;-63
2024/03/24 05:18:00;;;;;;;10.00;3.90;;;6.40;99.90;;;;;;5036081;28;20533;-63
2024/03/24 05:20:27;;;;;;;5.13;3.90;;;6.40;99.90;;;;;;5035410;28;21039;-62
2024/03/24 05:22:53;;;;;;;10.40;4.63;;;6.40;99.90;;;;;;5035452;28;20448;-61
2024/03/24 05:25:19;;;;;;;9.90;4.43;;;6.40;99.90;;;;;;5034921;28;20447;-63
2024/03/24 05:27:45;;;;;;;9.13;4.80;;;6.40;99.90;;;;;;5035334;28;20556;-63
2024/03/24 05:30:14;;;;;;;14.57;5.13;;;6.40;99.90;;;;;;5035134;28;20481;-63
2024/03/24 05:32:41;;;;;;;9.10;4.47;;;6.50;99.90;;;;;;5035275;28;20298;-63
2024/03/24 05:35:08;;;;;;;8.50;4.27;;;6.50;99.90;;;;;;5035207;28;20569;-63
2024/03/24 05:37:34;;;;;;;5.37;4.10;;;6.50;99.90;;;;;;5035223;28;20442;-62
2024/03/24 05:40:01;;;;;;;14.27;4.67;;;6.60;99.90;;;;;;5035205;28;20994;-62
2024/03/24 05:42:26;;;;;;;15.37;5.47;;;6.60;99.90;;;;;;5034729;28;20206;-62
2024/03/24 05:44:53;;;;;;;9.47;5.37;;;6.60;99.90;;;;;;5035046;28;20526;-62
2024/03/24 05:47:19;;;;;;;11.47;5.00;;;6.70;99.90;;;;;;5034883;28;20296;-62
2024/03/24 05:49:47;;;;;;;11.00;5.60;;;6.70;99.90;;;;;;5034805;28;20478;-62
2024/03/24 05:52:13;;;;;;;11.63;4.87;;;6.70;99.90;;;;;;5034853;28;20203;-62
2024/03/24 05:54:40;;;;;;;10.43;5.13;;;6.70;99.90;;;;;;5035255;28;20447;-62
2024/03/24 05:57:05;;;;;;;11.37;4.50;;;6.70;99.90;;;;;;5034531;28;20230;-62
2024/03/24 05:59:32;;;;;;;6.47;4.03;;;6.70;99.90;;;;;;5034587;28;20841;-61
2024/03/24 06:01:58;;;;;;;14.60;5.00;;;6.80;99.90;;;;;;5034407;28;20735;-62
2024/03/24 06:04:28;;;;;;;15.20;5.90;;;6.80;99.90;;;;;;5034485;28;20529;-62
2024/03/24 06:06:55;;;;;;;10.57;4.00;;;6.90;99.90;;;;;;5034500;28;20235;-62
2024/03/24 06:09:21;;;;;;;8.60;3.80;;;6.90;99.90;;;;;;5034501;28;20869;-62
2024/03/24 06:11:47;;;;;;;11.00;3.57;;;6.90;99.90;;;;;;5034307;28;20504;-62
2024/03/24 06:14:14;;;;;;;7.83;4.03;;;7.00;99.90;;;;;;5034510;28;20945;-62
2024/03/24 06:16:40;;;;;;;10.13;4.47;;;7.00;99.90;;;;;;5034452;28;20206;-62
2024/03/24 06:19:07;;;;;;;7.20;4.50;;;7.00;99.90;;;;;;5034338;28;20509;-62
2024/03/24 06:21:32;;;;;;;17.37;3.83;;;7.10;99.90;;;;;;5034358;28;20633;-62
2024/03/24 06:24:01;;;;;;;11.93;3.90;;;7.10;99.90;;;;;;5034198;28;20533;-61
2024/03/24 06:26:26;;;;;;;14.23;3.67;;;7.10;99.90;;;;;;5034208;28;20208;-62
2024/03/24 06:28:53;;;;;;;8.20;3.10;;;7.10;99.90;;;;;;5033847;28;21047;-62
2024/03/24 06:31:19;;;;;;;12.50;3.47;;;7.10;99.90;;;;;;5033981;28;20220;-62
2024/03/24 06:33:46;;;;;;;12.23;4.50;;;7.10;99.90;;;;;;5033793;28;20468;-62
2024/03/24 06:36:12;;;;;;;7.63;4.03;;;7.10;99.90;;;;;;5034179;28;20214;-62
2024/03/24 06:38:38;;;;;;;13.23;4.07;;;7.20;99.90;;;;;;5033680;28;20442;-62
2024/03/24 06:41:06;;;;;;;11.10;3.83;;;7.20;99.90;;;;;;5033519;28;20717;-62
2024/03/24 06:43:36;;;;;;;5.97;3.00;;;7.20;99.90;;;;;;5034377;28;20439;-61
2024/03/24 06:46:03;;;;;;;9.23;4.73;;;7.20;99.90;;;;;;5033919;28;20454;-62
2024/03/24 06:48:30;;;;;;;14.63;4.30;;;7.20;99.90;;;;;;5033681;28;20446;-62
2024/03/24 06:50:55;;;;;;;8.93;4.00;;;7.20;99.90;;;;;;5033689;28;20491;-62
2024/03/24 06:53:22;;;;;;;4.90;2.63;;;7.30;99.90;;;;;;5033996;28;20442;-62
2024/03/24 06:55:49;;;;;;;6.67;3.10;;;7.30;99.90;;;;;;5031358;28;20227;-62
2024/03/24 06:58:17;;;;;;;7.73;3.27;;;7.40;99.90;;;;;;5014004;28;20522;-62
2024/03/24 07:00:44;;;;;;;9.00;3.27;;;7.30;99.90;;;;;;5014064;28;20460;-62
2024/03/24 07:03:11;;;;;;;7.27;3.53;;;7.40;99.90;;;;;;5013829;28;20454;-61
2024/03/24 07:05:36;;;;;;;8.77;3.73;;;7.40;99.90;;;;;;5013832;28;20447;-62
2024/03/24 07:08:04;;;;;;;7.00;3.20;;;7.50;99.90;;;;;;5013636;28;20444;-62
2024/03/24 07:10:30;;;;;;;8.80;3.40;;;7.50;99.90;;;;;;5013193;28;20224;-62
2024/03/24 07:12:56;;;;;;;6.70;3.90;;;7.30;99.90;;;;;;5013662;28;20450;-62
2024/03/24 07:15:24;;;;;;;7.87;3.80;;;7.30;99.90;;;;;;5013968;28;20211;-62
2024/03/24 07:17:52;;;;;;;6.63;3.43;;;7.30;99.90;;;;;;5012640;28;20451;-62
2024/03/24 07:20:17;;;;;;;7.60;3.30;;;7.30;99.90;;;;;;5013179;28;21008;-61
2024/03/24 07:22:44;;;;;;;3.53;3.00;;;7.30;99.90;;;;;;5013399;28;20450;-62
2024/03/24 07:25:12;;;;;;;6.53;4.30;;;7.30;99.90;;;;;;5013399;28;20210;-62
2024/03/24 07:27:39;;;;;;;9.00;3.50;;;7.20;99.90;;;;;;5013169;28;20533;-62
2024/03/24 07:30:06;;;;;;;7.30;3.90;;;7.20;99.90;;;;;;5012962;28;20483;-62
2024/03/24 07:32:34;;;;;;;13.87;4.23;;;7.20;99.90;;;;;;5013559;28;20452;-63
2024/03/24 07:35:01;;;;;;;10.00;4.10;;;7.30;99.90;;;;;;5013120;28;20937;-63
2024/03/24 07:37:28;;;;;;;7.27;3.33;;;7.20;99.90;;;;;;5013501;28;20443;-63
2024/03/24 07:39:54;;;;;;;9.27;3.67;;;7.20;99.90;;;;;;5013394;28;20848;-63
2024/03/24 07:42:21;;;;;;;7.10;4.20;;;7.20;99.90;;;;;;5013421;28;20534;-62
2024/03/24 07:44:46;;;;;;;5.33;3.70;;;7.10;99.90;;;;;;5013465;28;20201;-62
2024/03/24 07:47:13;;;;;;;8.50;3.40;;;7.10;99.90;;;;;;5012973;28;20549;-63
2024/03/24 07:49:40;;;;;;;9.80;3.80;;;7.10;99.90;;;;;;5013177;28;20599;-63
2024/03/24 07:52:07;;;;;;;4.37;3.30;;;7.00;99.90;;;;;;5013199;28;20909;-63
2024/03/24 07:54:33;;;;;;;3.43;2.57;;;7.00;99.90;;;;;;5013237;28;20522;-63
2024/03/24 07:57:01;;;;;;;3.60;2.20;;;7.00;99.90;;;;;;5013085;28;21029;-63
2024/03/24 07:59:27;;;;;;;4.40;2.90;;;7.00;99.90;;;;;;5013111;28;20224;-62
2024/03/24 08:01:54;;;;;;;2.73;2.53;;;7.00;99.90;;;;;;5012789;28;20443;-63
2024/03/24 08:04:20;;;;;;;5.97;2.63;;;7.10;99.90;;;;;;5012925;28;20447;-63
2024/03/24 08:06:48;;;;;;;5.70;2.93;;;7.20;99.90;;;;;;5013094;28;20451;-63
2024/03/24 08:09:14;;;;;;;4.90;3.00;;;7.30;99.90;;;;;;5013117;28;20599;-63
2024/03/24 08:11:41;;;;;;;3.03;2.30;;;7.40;99.90;;;;;;5013206;28;20471;-63
2024/03/24 08:14:07;;;;;;;5.27;2.97;;;7.50;99.90;;;;;;5012768;28;20291;-63
2024/03/24 08:16:33;;;;;;;6.00;2.97;;;7.50;99.90;;;;;;5013137;28;20538;-63
2024/03/24 08:18:59;;;;;;;5.77;3.07;;;7.70;99.90;;;;;;5013218;28;20215;-63
2024/03/24 08:21:26;;;;;;;3.13;2.83;;;7.80;99.90;;;;;;5013091;28;20443;-63
2024/03/24 08:23:53;;;;;;;4.23;2.70;;;7.90;99.90;;;;;;5012963;28;20240;-63
2024/03/24 08:26:20;;;;;;;10.23;3.93;;;8.00;99.90;;;;;;5013041;28;20447;-63
2024/03/24 08:28:46;;;;;;;4.67;3.53;;;8.10;99.90;;;;;;5014614;28;20455;-62
2024/03/24 08:31:13;;;;;;;6.30;3.10;;;8.20;99.90;;;;;;5016455;28;21043;-62
2024/03/24 08:33:38;;;;;;;7.47;3.57;;;8.30;99.90;;;;;;5016804;28;20207;-62
2024/03/24 08:36:07;;;;;;;5.33;3.43;;;8.50;99.90;;;;;;5016541;28;20443;-62
2024/03/24 08:38:33;;;;;;;4.70;3.33;;;8.50;99.90;;;;;;5016459;28;20215;-62
2024/03/24 08:41:01;;;;;;;5.80;3.20;;;8.40;99.90;;;;;;5016380;28;20899;-62
2024/03/24 08:43:27;;;;;;;4.50;4.07;;;8.40;99.90;;;;;;5016128;28;20453;-62
2024/03/24 08:45:54;;;;;;;5.17;4.00;;;8.40;99.90;;;;;;5016430;28;20446;-62
2024/03/24 08:48:20;;;;;;;5.30;3.30;;;8.40;99.90;;;;;;5016213;28;20205;-62
2024/03/24 08:50:46;;;;;;;5.90;2.60;;;8.40;99.90;;;;;;5016165;28;20485;-61
2024/03/24 08:53:14;;;;;;;10.33;3.27;;;8.50;99.90;;;;;;5015975;28;20451;-62
2024/03/24 08:55:41;;;;;;;9.07;3.90;;;8.60;99.90;;;;;;5016351;28;20475;-62
2024/03/24 08:58:08;;;;;;;9.03;4.53;;;8.70;99.90;;;;;;5016183;28;20454;-61
2024/03/24 09:00:35;;;;;;;4.40;3.63;;;8.70;99.90;;;;;;5016019;28;20566;-61
2024/03/24 09:03:01;;;;;;;5.57;3.80;;;8.80;99.90;;;;;;5016015;28;20455;-61
2024/03/24 09:05:27;;;;;;;6.90;3.67;;;8.80;99.90;;;;;;5015684;28;20447;-62
2024/03/24 09:07:53;;;;;;;10.40;3.77;;;8.90;99.90;;;;;;5015894;28;20212;-62
2024/03/24 09:10:20;;;;;;;7.00;3.87;;;8.90;99.90;;;;;;5015621;28;21003;-62
2024/03/24 09:12:46;;;;;;;9.73;4.23;;;9.00;99.90;;;;;;5015857;28;20207;-62
2024/03/24 09:15:14;;;;;;;5.83;3.63;;;9.20;99.90;;;;;;5015832;28;20439;-62
2024/03/24 09:17:40;;;;;;;6.00;3.83;;;9.30;99.90;;;;;;5015785;28;20552;-62
2024/03/24 09:20:08;;;;;;;4.30;3.43;;;9.50;99.90;;;;;;5015340;28;20554;-62
2024/03/24 09:22:34;;;;;;;9.17;4.33;;;9.60;99.90;;;;;;5015385;28;20581;-62
2024/03/24 09:25:01;;;;;;;7.73;4.17;;;9.70;99.90;;;;;;5015805;28;20444;-62
2024/03/24 09:27:26;;;;;;;7.23;3.60;;;9.70;99.90;;;;;;5015808;28;20204;-62
2024/03/24 09:29:53;;;;;;;6.50;3.90;;;9.80;99.90;;;;;;5015465;28;20469;-62
2024/03/24 09:32:20;;;;;;;9.43;4.87;;;9.80;99.90;;;;;;5015125;28;20228;-62
2024/03/24 09:34:48;;;;;;;8.20;4.50;;;9.90;99.90;;;;;;5015384;28;20443;-62
2024/03/24 09:37:14;;;;;;;8.00;4.20;;;10.00;99.90;;;;;;5015464;28;20482;-62
2024/03/24 09:39:41;;;;;;;8.03;4.17;;;9.90;99.90;;;;;;5014627;28;20831;-62
2024/03/24 09:42:11;;;;;;;7.73;4.40;;;9.90;99.90;;;;;;5014928;28;20197;-62
2024/03/24 09:44:40;;;;;;;9.50;4.37;;;9.90;99.90;;;;;;5015312;28;20554;-62
2024/03/24 09:47:06;;;;;;;7.50;4.23;;;9.90;99.90;;;;;;5015206;28;20451;-62
2024/03/24 09:49:37;;;;;;;8.47;4.43;;;9.80;99.90;;;;;;5014980;28;20471;-62
2024/03/24 09:52:04;;;;;;;8.17;4.07;;;9.80;99.90;;;;;;5015595;28;20479;-62
2024/03/24 09:54:31;;;;;;;10.67;4.57;;;9.80;99.90;;;;;;5014959;28;20451;-62
2024/03/24 09:56:58;;;;;;;11.57;4.20;;;10.00;99.90;;;;;;5014251;28;20479;-62
2024/03/24 09:59:28;;;;;;;10.87;4.57;;;10.20;99.90;;;;;;5014869;28;20467;-62
2024/03/24 10:01:54;;;;;;;9.20;4.30;;;10.40;99.80;;;;;;5014569;28;20954;-62
2024/03/24 10:04:22;;;;;;;6.63;3.93;;;10.50;99.00;;;;;;5014692;28;20439;-62
2024/03/24 10:06:49;;;;;;;13.00;5.03;;;10.50;99.10;;;;;;5014513;28;20505;-62
2024/03/24 10:09:15;;;;;;;9.90;4.63;;;10.50;99.30;;;;;;5014708;28;20474;-62
2024/03/24 10:11:41;;;;;;;7.33;3.80;;;10.30;99.10;;;;;;5014606;28;20484;-62
2024/03/24 10:14:08;;;;;;;13.83;4.83;;;10.10;99.80;;;;;;5014728;28;20536;-63
2024/03/24 10:16:34;;;;;;;6.60;4.13;;;9.90;99.90;;;;;;5014677;28;20542;-62
2024/03/24 10:19:10;;;;;;;12.23;4.70;;;9.90;99.90;;;;;;5014230;28;20513;-63
2024/03/24 10:21:37;;;;;;;9.60;4.70;;;9.80;99.90;;;;;;5014867;28;20423;-63
2024/03/24 10:24:06;;;;;;;12.40;4.40;;;9.90;99.90;;;;;;5014479;28;20447;-63
2024/03/24 10:26:35;;;;;;;7.67;3.53;;;10.20;99.90;;;;;;5014513;28;20458;-63
2024/03/24 10:29:05;;;;;;;6.07;3.80;;;10.50;99.90;;;;;;5014307;28;20866;-62
2024/03/24 10:31:32;;;;;;;8.70;4.27;;;11.00;98.20;;;;;;5014300;28;20479;-63
2024/03/24 10:33:59;;;;;;;11.40;4.13;;;11.40;96.80;;;;;;5014391;28;20451;-62
2024/03/24 10:36:25;;;;;;;8.00;3.10;;;11.80;95.30;;;;;;5014064;28;20968;-62
2024/03/24 10:38:52;;;;;;;10.60;3.70;;;12.00;93.90;;;;;;5014517;28;20447;-62
2024/03/24 10:41:20;;;;;;;11.77;3.57;;;11.90;93.30;;;;;;5014160;28;20208;-62
2024/03/24 10:43:48;;;;;;;8.23;3.70;;;11.60;94.80;;;;;;5014129;28;20455;-62
2024/03/24 10:46:15;;;;;;;8.20;3.97;;;11.30;95.80;;;;;;5013892;28;20462;-61
2024/03/24 10:48:44;;;;;;;8.93;3.80;;;11.20;96.20;;;;;;5014002;28;20471;-63
2024/03/24 10:51:11;;;;;;;8.30;3.90;;;11.10;97.80;;;;;;5013578;28;20479;-62
2024/03/24 10:53:38;;;;;;;8.40;3.77;;;11.00;98.30;;;;;;5014090;28;20876;-63
2024/03/24 10:56:07;;;;;;;7.73;3.70;;;11.10;98.50;;;;;;5013770;28;21013;-63
2024/03/24 10:58:35;;;;;;;10.97;3.87;;;11.00;97.90;;;;;;5013941;28;20447;-63
2024/03/24 11:01:03;;;;;;;12.77;4.90;;;10.80;96.40;;;;;;5013600;28;20471;-63
2024/03/24 11:03:29;;;;;;;6.93;3.50;;;10.60;97.80;;;;;;5013872;28;20447;-63
2024/03/24 11:05:58;;;;;;;6.70;3.60;;;10.50;97.20;;;;;;5014348;28;20444;-63
2024/03/24 11:08:24;;;;;;;9.83;3.33;;;10.30;97.20;;;;;;5013866;28;20447;-63
2024/03/24 11:10:54;;;;;;;8.87;3.23;;;10.30;97.60;;;;;;5013618;28;20581;-63
2024/03/24 11:13:27;;;;;;;6.17;3.33;;;10.40;97.70;;;;;;5013917;28;20189;-63
2024/03/24 11:15:56;;;;;;;5.73;2.53;;;10.60;98.40;;;;;;5013758;28;20431;-62
2024/03/24 11:18:23;;;;;;;9.13;3.00;;;10.70;98.10;;;;;;5013640;28;20542;-63
2024/03/24 11:20:54;;;;;;;15.80;4.33;;;10.60;96.90;;;;;;5013667;28;20456;-63
2024/03/24 11:23:21;;;;;;;5.70;3.03;;;10.50;97.60;;;;;;5013628;28;20447;-63
2024/03/24 11:25:51;;;;;;;9.03;3.57;;;10.50;97.70;;;;;;5013708;28;20505;-63
2024/03/24 11:28:38;;;;;;;9.33;3.70;;;10.40;97.80;;;;;;5013552;28;20455;-63
2024/03/24 11:31:13;;;;;;;11.07;3.50;;;10.40;98.00;;;;;;5013197;28;20533;-63
2024/03/24 11:33:39;;;;;;;9.87;2.70;;;10.30;97.20;;;;;;5013464;28;20431;-63
2024/03/24 11:36:19;;;;;;;9.00;3.10;;;10.20;98.10;;;;;;5013509;28;20963;-63
2024/03/24 11:38:46;;;;;;;7.93;3.20;;;10.30;96.90;;;;;;5013122;28;20669;-62
2024/03/24 11:41:15;;;;;;;10.80;3.27;;;10.40;97.10;;;;;;5013142;28;20862;-62
2024/03/24 11:43:41;;;;;;;8.90;3.20;;;10.50;96.70;;;;;;5013031;28;20458;-62
2024/03/24 11:46:10;;;;;;;6.90;2.43;;;10.70;95.80;;;;;;5013369;28;20447;-62
2024/03/24 11:48:38;;;;;;;9.73;3.10;;;10.90;95.60;;;;;;5013343;28;20450;-62
2024/03/24 11:51:07;;;;;;;13.90;2.20;;;11.00;95.00;;;;;;5013160;28;20486;-62
2024/03/24 11:53:34;;;;;;;8.47;2.67;;;10.90;93.80;;;;;;5012834;28;20505;-62
2024/03/24 11:56:01;;;;;;;7.70;2.53;;;10.70;93.30;;;;;;5013118;28;20516;-61
2024/03/24 11:58:28;;;;;;;6.50;2.90;;;10.50;93.80;;;;;;5013814;28;20443;-62
2024/03/24 12:00:55;;;;;;;10.07;2.63;;;10.40;93.40;;;;;;5013199;28;20529;-62
2024/03/24 12:03:21;;;;;;;6.90;2.67;;;10.30;94.40;;;;;;5014490;28;20534;-62
2024/03/24 12:05:52;;;;;;;6.47;2.50;;;10.40;94.60;;;;;;5016812;28;20903;-62
2024/03/24 12:08:18;;;;;;;6.33;2.63;;;10.40;94.60;;;;;;5016780;28;20643;-61
2024/03/24 12:10:45;;;;;;;7.70;2.90;;;10.40;93.30;;;;;;5016422;28;20467;-62
2024/03/24 12:13:12;;;;;;;11.97;2.70;;;10.40;93.30;;;;;;5016600;28;20964;-62
2024/03/24 12:15:39;;;;;;;10.67;2.90;;;10.40;93.40;;;;;;5016601;28;20501;-61
2024/03/24 12:18:07;;;;;;;4.50;2.73;;;10.50;93.90;;;;;;5016845;28;20439;-62
2024/03/24 12:20:33;;;;;;;8.50;3.00;;;10.50;93.70;;;;;;5016826;28;20474;-62
2024/03/24 12:23:01;;;;;;;14.30;4.53;;;10.50;93.60;;;;;;5016838;28;20435;-62
2024/03/24 12:25:28;;;;;;;9.13;2.73;;;10.60;93.60;;;;;;5016769;28;20451;-62
2024/03/24 12:27:55;;;;;;;5.87;2.50;;;10.50;92.20;;;;;;5016818;28;20455;-62
2024/03/24 12:30:22;;;;;;;7.10;2.30;;;10.30;92.00;;;;;;5016246;28;20981;-62
2024/03/24 12:32:49;;;;;;;6.17;3.03;;;10.20;92.10;;;;;;5016224;28;20860;-62
2024/03/24 12:35:17;;;;;;;8.30;2.90;;;10.10;92.90;;;;;;5016716;28;20452;-62
2024/03/24 12:37:44;;;;;;;7.03;2.97;;;10.10;92.70;;;;;;5016605;28;20451;-62
2024/03/24 12:40:24;;;;;;;9.17;3.10;;;10.10;93.40;;;;;;5016043;28;20467;-62
2024/03/24 12:42:50;;;;;;;11.23;3.77;;;10.10;93.50;;;;;;5016589;28;20431;-61
2024/03/24 12:45:18;;;;;;;7.60;2.77;;;10.10;92.90;;;;;;5016525;28;20447;-62
2024/03/24 12:47:44;;;;;;;5.20;2.47;;;10.20;93.30;;;;;;5016413;28;20227;-62
2024/03/24 12:50:27;;;;;;;9.80;3.77;;;10.30;92.90;;;;;;5016066;28;20467;-62
2024/03/24 12:53:00;;;;;;;8.10;2.93;;;10.40;93.70;;;;;;5016055;28;20859;-62